createdAt,value
2022-09-16T00:00:03.143Z,14.23
2022-09-16T00:01:04.249Z,14.3
2022-09-16T00:02:04.544Z,14.2
2022-09-16T00:03:04.917Z,14.19
2022-09-16T00:04:04.807Z,14.22
2022-09-16T00:05:05.999Z,14.19
2022-09-16T00:06:05.910Z,14.18
2022-09-16T00:07:06.226Z,14.23
2022-09-16T00:08:07.472Z,14.25
2022-09-16T00:09:07.666Z,14.23
2022-09-16T00:10:07.814Z,14.2
2022-09-16T00:11:08.703Z,14.19
2022-09-16T00:12:08.351Z,14.18
2022-09-16T00:13:09.344Z,14.19
2022-09-16T00:14:09.548Z,14.19
2022-09-16T00:15:10.472Z,14.25
2022-09-16T00:16:10.581Z,14.19
2022-09-16T00:17:11.394Z,14.19
2022-09-16T00:18:12.623Z,14.19
2022-09-16T00:19:12.293Z,14.19
2022-09-16T00:20:13.012Z,14.22
2022-09-16T00:21:12.934Z,14.23
2022-09-16T00:22:13.276Z,14.23
2022-09-16T00:23:14.535Z,14.23
2022-09-16T00:24:14.477Z,14.34
2022-09-16T00:25:15.359Z,14.31
2022-09-16T00:26:16.258Z,14.23
2022-09-16T00:27:16.896Z,14.25
2022-09-16T00:28:17.532Z,14.22
2022-09-16T00:29:18.450Z,14.25
2022-09-16T00:30:18.735Z,14.25
2022-09-16T00:31:19.524Z,14.2
2022-09-16T00:32:20.628Z,14.16
2022-09-16T00:33:20.544Z,14.22
2022-09-16T00:34:21.739Z,14.2
2022-09-16T00:35:21.649Z,14.2
2022-09-16T00:36:22.279Z,14.22
2022-09-16T00:37:22.614Z,14.2
2022-09-16T00:38:23.875Z,14.22
2022-09-16T00:39:23.794Z,14.13
2022-09-16T00:40:24.636Z,14.2
2022-09-16T00:41:24.756Z,14.19
2022-09-16T00:42:24.687Z,14.23
2022-09-16T00:43:25.579Z,14.18
2022-09-16T00:44:26.233Z,14.12
2022-09-16T00:45:27.122Z,14.18
2022-09-16T00:46:27.280Z,14.12
2022-09-16T00:47:27.600Z,14.12
2022-09-16T00:48:27.931Z,14.08
2022-09-16T00:49:28.265Z,14.15
2022-09-16T00:50:28.971Z,14.16
2022-09-16T00:51:28.878Z,14.15
2022-09-16T00:52:29.368Z,14.13
2022-09-16T00:53:29.622Z,14.18
2022-09-16T00:54:29.558Z,14.08
2022-09-16T00:55:30.752Z,14.18
2022-09-16T00:56:31.233Z,14.07
2022-09-16T00:57:31.582Z,14.12
2022-09-16T00:58:32.220Z,14.13
2022-09-16T00:59:33.135Z,14.18
2022-09-16T01:00:33.755Z,14.19
2022-09-16T01:01:33.956Z,14.18
2022-09-16T01:02:33.874Z,14.15
2022-09-16T01:03:34.788Z,14.15
2022-09-16T01:04:35.417Z,14.11
2022-09-16T01:05:36.330Z,14.23
2022-09-16T01:06:36.832Z,14.18
2022-09-16T01:07:36.724Z,14.18
2022-09-16T01:08:37.974Z,14.19
2022-09-16T01:09:37.733Z,14.2
2022-09-16T01:10:39.016Z,14.25
2022-09-16T01:11:39.499Z,14.2
2022-09-16T01:12:40.153Z,14.2
2022-09-16T01:13:40.488Z,14.2
2022-09-16T01:14:41.377Z,14.23
2022-09-16T01:15:41.980Z,14.2
2022-09-16T01:16:42.759Z,14.18
2022-09-16T01:17:43.365Z,14.22
2022-09-16T01:18:43.974Z,14.2
2022-09-16T01:19:44.876Z,14.2
2022-09-16T01:20:45.908Z,14.18
2022-09-16T01:21:46.522Z,14.23
2022-09-16T01:22:47.144Z,14.23
2022-09-16T01:23:48.265Z,14.16
2022-09-16T01:24:48.348Z,14.15
2022-09-16T01:25:49.552Z,14.15
2022-09-16T01:26:49.443Z,14.18
2022-09-16T01:27:49.946Z,14.16
2022-09-16T01:28:50.543Z,14.18
2022-09-16T01:29:51.544Z,14.13
2022-09-16T01:30:51.676Z,14.2
2022-09-16T01:31:53.038Z,14.19
2022-09-16T01:32:53.634Z,14.16
2022-09-16T01:33:54.848Z,14.22
2022-09-16T01:34:55.457Z,14.22
2022-09-16T01:35:56.092Z,14.18
2022-09-16T01:36:57.021Z,14.23
2022-09-16T01:37:58.244Z,14.18
2022-09-16T01:38:58.268Z,14.11
2022-09-16T01:39:59.718Z,14.16
2022-09-16T01:40:59.607Z,14.2
2022-09-16T01:41:59.500Z,14.2
2022-09-16T01:42:59.708Z,14.2
2022-09-16T01:43:59.615Z,14.22
2022-09-16T01:45:00.829Z,14.2
2022-09-16T01:46:01.205Z,14.18
2022-09-16T01:47:02.036Z,14.12
2022-09-16T01:48:02.656Z,14.12
2022-09-16T01:49:03.287Z,14.11
2022-09-16T01:50:03.920Z,14.11
2022-09-16T01:51:04.060Z,14.12
2022-09-16T01:52:04.685Z,14.05
2022-09-16T01:53:04.890Z,14.04
2022-09-16T01:54:05.582Z,14.18
2022-09-16T01:55:05.756Z,14.12
2022-09-16T01:56:06.947Z,14.16
2022-09-16T01:57:07.589Z,14.15
2022-09-16T01:58:07.951Z,14.15
2022-09-16T01:59:08.868Z,14.12
2022-09-16T02:00:09.764Z,14.12
2022-09-16T02:01:10.487Z,14.13
2022-09-16T02:02:12.206Z,14.15
2022-09-16T02:03:11.977Z,14.15
2022-09-16T02:04:13.169Z,14.12
2022-09-16T02:05:13.503Z,14.16
2022-09-16T02:06:14.396Z,14.23
2022-09-16T02:07:15.037Z,14.19
2022-09-16T02:08:15.671Z,14.2
2022-09-16T02:09:16.921Z,14.19
2022-09-16T02:10:17.828Z,14.15
2022-09-16T02:11:18.227Z,14.12
2022-09-16T02:12:19.561Z,14.13
2022-09-16T02:13:19.908Z,14.16
2022-09-16T02:14:20.342Z,14.19
2022-09-16T02:15:21.254Z,14.13
2022-09-16T02:16:22.677Z,14.18
2022-09-16T02:17:22.022Z,14.2
2022-09-16T02:18:22.634Z,14.18
2022-09-16T02:19:23.252Z,14.16
2022-09-16T02:20:24.175Z,14.16
2022-09-16T02:21:24.594Z,14.23
2022-09-16T02:22:25.515Z,14.22
2022-09-16T02:23:25.701Z,14.23
2022-09-16T02:24:25.962Z,14.19
2022-09-16T02:25:26.558Z,14.23
2022-09-16T02:26:27.740Z,14.23
2022-09-16T02:27:27.631Z,14.22
2022-09-16T02:28:28.275Z,14.2
2022-09-16T02:29:28.605Z,14.22
2022-09-16T02:30:29.218Z,14.2
2022-09-16T02:31:31.119Z,14.31
2022-09-16T02:32:30.674Z,14.23
2022-09-16T02:33:31.559Z,14.23
2022-09-16T02:34:32.217Z,14.28
2022-09-16T02:35:33.407Z,14.26
2022-09-16T02:36:33.298Z,14.23
2022-09-16T02:37:33.636Z,14.28
2022-09-16T02:38:34.276Z,14.41
2022-09-16T02:39:35.501Z,14.3
2022-09-16T02:40:36.619Z,14.3
2022-09-16T02:41:37.061Z,14.34
2022-09-16T02:42:38.274Z,14.36
2022-09-16T02:43:38.472Z,14.36
2022-09-16T02:44:39.105Z,14.31
2022-09-16T02:45:39.722Z,14.34
2022-09-16T02:46:40.274Z,14.44
2022-09-16T02:47:41.511Z,14.26
2022-09-16T02:48:41.998Z,14.44
2022-09-16T02:49:42.189Z,14.3
2022-09-16T02:50:42.403Z,14.28
2022-09-16T02:51:43.114Z,14.4
2022-09-16T02:52:44.760Z,14.41
2022-09-16T02:53:45.026Z,14.45
2022-09-16T02:54:45.287Z,14.33
2022-09-16T02:55:46.182Z,14.36
2022-09-16T02:56:46.223Z,14.37
2022-09-16T02:57:46.862Z,14.44
2022-09-16T02:58:47.505Z,14.48
2022-09-16T02:59:48.713Z,14.48
2022-09-16T03:00:48.921Z,14.4
2022-09-16T03:01:49.483Z,14.49
2022-09-16T03:02:49.796Z,14.44
2022-09-16T03:03:49.913Z,14.52
2022-09-16T03:04:50.103Z,14.51
2022-09-16T03:05:50.992Z,14.56
2022-09-16T03:06:51.607Z,14.55
2022-09-16T03:07:52.532Z,14.58
2022-09-16T03:08:52.495Z,14.53
2022-09-16T03:09:53.736Z,14.52
2022-09-16T03:10:53.615Z,14.43
2022-09-16T03:11:54.025Z,14.48
2022-09-16T03:12:54.936Z,14.43
2022-09-16T03:13:55.663Z,14.49
2022-09-16T03:14:55.984Z,14.43
2022-09-16T03:15:57.013Z,14.44
2022-09-16T03:16:57.392Z,14.37
2022-09-16T03:17:57.878Z,14.41
2022-09-16T03:18:57.798Z,14.43
2022-09-16T03:19:58.691Z,14.41
2022-09-16T03:20:58.328Z,14.43
2022-09-16T03:21:59.642Z,14.34
2022-09-16T03:23:00.276Z,14.34
2022-09-16T03:24:00.231Z,14.33
2022-09-16T03:25:00.486Z,14.36
2022-09-16T03:26:01.662Z,14.33
2022-09-16T03:27:01.863Z,14.26
2022-09-16T03:28:01.758Z,14.41
2022-09-16T03:29:02.386Z,14.44
2022-09-16T03:30:02.305Z,14.38
2022-09-16T03:31:03.102Z,14.31
2022-09-16T03:32:03.813Z,14.36
2022-09-16T03:33:04.734Z,14.41
2022-09-16T03:34:05.224Z,14.36
2022-09-16T03:35:05.553Z,14.37
2022-09-16T03:36:06.466Z,14.38
2022-09-16T03:37:07.082Z,14.37
2022-09-16T03:38:08.014Z,14.36
2022-09-16T03:39:09.193Z,14.37
2022-09-16T03:40:09.668Z,14.33
2022-09-16T03:41:09.447Z,14.33
2022-09-16T03:42:10.134Z,14.33
2022-09-16T03:43:10.775Z,14.31
2022-09-16T03:44:11.336Z,14.3
2022-09-16T03:45:12.229Z,14.37
2022-09-16T03:46:12.297Z,14.45
2022-09-16T03:47:13.001Z,14.38
2022-09-16T03:48:13.620Z,14.3
2022-09-16T03:49:13.528Z,14.34
2022-09-16T03:50:14.735Z,14.37
2022-09-16T03:51:14.941Z,14.4
2022-09-16T03:52:15.910Z,14.37
2022-09-16T03:53:16.110Z,14.33
2022-09-16T03:54:17.032Z,14.36
2022-09-16T03:55:17.272Z,14.38
2022-09-16T03:56:17.608Z,14.38
2022-09-16T03:57:18.219Z,14.38
2022-09-16T03:58:19.828Z,14.43
2022-09-16T03:59:20.057Z,14.33
2022-09-16T04:00:20.392Z,14.37
2022-09-16T04:01:21.856Z,14.43
2022-09-16T04:02:22.153Z,14.36
2022-09-16T04:03:22.956Z,14.34
2022-09-16T04:04:23.890Z,14.36
2022-09-16T04:05:24.778Z,14.4
2022-09-16T04:06:24.666Z,14.31
2022-09-16T04:07:24.876Z,14.44
2022-09-16T04:08:25.809Z,14.44
2022-09-16T04:09:26.726Z,14.38
2022-09-16T04:10:26.995Z,14.41
2022-09-16T04:11:27.185Z,14.36
2022-09-16T04:12:27.761Z,14.38
2022-09-16T04:13:28.676Z,14.38
2022-09-16T04:14:28.895Z,14.26
2022-09-16T04:15:29.609Z,14.44
2022-09-16T04:16:30.865Z,14.41
2022-09-16T04:17:31.241Z,14.31
2022-09-16T04:18:32.139Z,14.33
2022-09-16T04:19:33.105Z,14.34
2022-09-16T04:20:33.713Z,14.33
2022-09-16T04:21:34.341Z,14.31
2022-09-16T04:22:34.357Z,14.31
2022-09-16T04:23:35.562Z,14.36
2022-09-16T04:24:36.445Z,14.28
2022-09-16T04:25:37.382Z,14.25
2022-09-16T04:26:37.289Z,14.28
2022-09-16T04:27:37.191Z,14.31
2022-09-16T04:28:37.803Z,14.26
2022-09-16T04:29:38.036Z,14.33
2022-09-16T04:30:38.689Z,14.43
2022-09-16T04:31:39.787Z,14.37
2022-09-16T04:32:39.904Z,14.33
2022-09-16T04:33:40.519Z,14.38
2022-09-16T04:34:41.451Z,14.33
2022-09-16T04:35:42.340Z,14.34
2022-09-16T04:36:43.530Z,14.37
2022-09-16T04:37:43.438Z,14.31
2022-09-16T04:38:44.538Z,14.37
2022-09-16T04:39:43.967Z,14.33
2022-09-16T04:40:45.328Z,14.37
2022-09-16T04:41:45.655Z,14.38
2022-09-16T04:42:46.394Z,14.34
2022-09-16T04:43:46.585Z,14.33
2022-09-16T04:44:47.217Z,14.26
2022-09-16T04:45:48.655Z,14.26
2022-09-16T04:46:49.767Z,14.23
2022-09-16T04:47:49.972Z,14.19
2022-09-16T04:48:51.163Z,14.19
2022-09-16T04:49:51.787Z,14.2
2022-09-16T04:50:52.696Z,14.18
2022-09-16T04:51:52.882Z,14.22
2022-09-16T04:52:53.001Z,14.2
2022-09-16T04:53:54.399Z,14.19
2022-09-16T04:54:56.572Z,14.15
2022-09-16T04:55:55.141Z,14.05
2022-09-16T04:56:56.045Z,14.05
2022-09-16T04:57:56.235Z,13.98
2022-09-16T04:58:56.688Z,13.97
2022-09-16T04:59:56.923Z,14.01
2022-09-16T05:00:57.842Z,13.97
2022-09-16T05:01:58.482Z,13.86
2022-09-16T05:02:59.129Z,13.97
2022-09-16T05:04:00.205Z,13.86
2022-09-16T05:05:00.539Z,14.01
2022-09-16T05:06:01.171Z,13.98
2022-09-16T05:07:01.782Z,14.01
2022-09-16T05:08:02.411Z,14.04
2022-09-16T05:09:03.033Z,14.01
2022-09-16T05:10:03.347Z,13.95
2022-09-16T05:11:04.580Z,14.05
2022-09-16T05:12:04.519Z,13.97
2022-09-16T05:13:04.594Z,14.01
2022-09-16T05:14:05.508Z,14.01
2022-09-16T05:15:06.557Z,14.03
2022-09-16T05:16:07.244Z,14.03
2022-09-16T05:17:07.310Z,14.07
2022-09-16T05:18:08.182Z,14.08
2022-09-16T05:19:08.377Z,14.07
2022-09-16T05:20:09.020Z,14.05
2022-09-16T05:21:10.214Z,14.04
2022-09-16T05:22:10.555Z,14.07
2022-09-16T05:23:11.550Z,14.16
2022-09-16T05:24:12.863Z,14.13
2022-09-16T05:25:14.076Z,14.15
2022-09-16T05:26:14.619Z,14.13
2022-09-16T05:27:14.816Z,14.19
2022-09-16T05:28:15.729Z,14.15
2022-09-16T05:29:15.657Z,14.23
2022-09-16T05:30:16.674Z,14.19
2022-09-16T05:31:17.357Z,14.25
2022-09-16T05:32:16.984Z,14.2
2022-09-16T05:33:18.251Z,14.22
2022-09-16T05:34:18.473Z,14.2
2022-09-16T05:35:18.400Z,14.26
2022-09-16T05:36:18.889Z,14.25
2022-09-16T05:37:19.374Z,14.38
2022-09-16T05:38:19.561Z,14.3
2022-09-16T05:39:35.986Z,14.33
2022-09-16T05:40:20.163Z,14.37
2022-09-16T05:41:21.568Z,14.23
2022-09-16T05:42:22.048Z,14.34
2022-09-16T05:43:22.272Z,14.36
2022-09-16T05:44:23.208Z,14.34
2022-09-16T05:45:33.039Z,14.34
2022-09-16T05:46:23.834Z,14.43
2022-09-16T05:47:24.109Z,14.37
2022-09-16T05:48:24.716Z,14.44
2022-09-16T05:49:25.354Z,14.49
2022-09-16T05:50:25.962Z,14.49
2022-09-16T05:51:26.490Z,14.41
2022-09-16T05:52:25.831Z,14.41
2022-09-16T05:53:27.092Z,14.41
2022-09-16T05:54:28.021Z,14.41
2022-09-16T05:55:28.751Z,14.43
2022-09-16T05:56:29.528Z,14.51
2022-09-16T05:57:29.426Z,14.43
2022-09-16T05:58:30.341Z,14.52
2022-09-16T05:59:31.267Z,14.43
2022-09-16T06:00:31.561Z,14.43
2022-09-16T06:01:31.757Z,14.43
2022-09-16T06:02:32.332Z,14.34
2022-09-16T06:03:32.283Z,14.43
2022-09-16T06:04:32.906Z,14.34
2022-09-16T06:05:33.093Z,14.45
2022-09-16T06:06:34.351Z,14.4
2022-09-16T06:07:33.989Z,14.31
2022-09-16T06:08:34.881Z,14.26
2022-09-16T06:09:35.796Z,14.38
2022-09-16T06:10:36.794Z,14.33
2022-09-16T06:11:37.037Z,14.2
2022-09-16T06:12:36.911Z,14.16
2022-09-16T06:13:37.326Z,14.13
2022-09-16T06:14:37.976Z,14.13
2022-09-16T06:15:38.406Z,14.16
2022-09-16T06:16:38.576Z,14.16
2022-09-16T06:17:39.498Z,14.15
2022-09-16T06:18:40.699Z,14.12
2022-09-16T06:19:41.183Z,14.05
2022-09-16T06:20:41.116Z,14.13
2022-09-16T06:21:42.034Z,14.11
2022-09-16T06:22:42.361Z,14.12
2022-09-16T06:23:43.265Z,14.04
2022-09-16T06:24:43.482Z,14.05
2022-09-16T06:25:44.492Z,14.05
2022-09-16T06:26:44.771Z,14.15
2022-09-16T06:27:45.673Z,14.18
2022-09-16T06:28:46.289Z,14.2
2022-09-16T06:29:47.214Z,14.23
2022-09-16T06:30:48.634Z,14.18
2022-09-16T06:31:48.673Z,14.28
2022-09-16T06:32:48.574Z,14.36
2022-09-16T06:33:49.271Z,14.37
2022-09-16T06:34:49.961Z,14.37
2022-09-16T06:35:50.524Z,14.43
2022-09-16T06:36:51.439Z,14.43
2022-09-16T06:37:50.356Z,14.56
2022-09-16T06:38:51.853Z,14.52
2022-09-16T06:39:51.876Z,14.56
2022-09-16T06:40:52.746Z,14.59
2022-09-16T06:41:53.386Z,14.59
2022-09-16T06:43:00.050Z,14.7
2022-09-16T06:43:54.100Z,14.74
2022-09-16T06:44:54.696Z,14.86
2022-09-16T06:45:55.230Z,14.79
2022-09-16T06:46:55.683Z,14.89
2022-09-16T06:47:56.591Z,14.87
2022-09-16T06:49:02.931Z,15.02
2022-09-16T06:49:57.703Z,14.82
2022-09-16T06:50:57.894Z,14.99
2022-09-16T06:51:58.811Z,14.93
2022-09-16T06:52:59.826Z,14.9
2022-09-16T06:54:00.850Z,14.73
2022-09-16T06:55:01.270Z,14.86
2022-09-16T06:56:02.591Z,14.89
2022-09-16T06:57:02.960Z,14.93
2022-09-16T06:58:02.887Z,15
2022-09-16T06:59:03.898Z,15
2022-09-16T07:00:04.791Z,15.05
2022-09-16T07:01:06.274Z,15.08
2022-09-16T07:02:07.015Z,14.96
2022-09-16T07:03:07.310Z,15.04
2022-09-16T07:04:07.746Z,15.1
2022-09-16T07:05:07.937Z,15.07
2022-09-16T07:06:08.566Z,14.97
2022-09-16T07:07:15.422Z,15
2022-09-16T07:08:09.619Z,14.86
2022-09-16T07:09:09.828Z,14.97
2022-09-16T07:10:09.760Z,14.93
2022-09-16T07:11:11.068Z,14.97
2022-09-16T07:12:13.358Z,15.05
2022-09-16T07:13:11.683Z,14.96
2022-09-16T07:14:12.105Z,15.07
2022-09-16T07:15:13.006Z,15.08
2022-09-16T07:16:19.195Z,15.04
2022-09-16T07:17:13.489Z,15.08
2022-09-16T07:18:14.438Z,15.1
2022-09-16T07:19:15.074Z,14.96
2022-09-16T07:20:16.008Z,15.04
2022-09-16T07:21:17.215Z,15.07
2022-09-16T07:22:18.155Z,15.05
2022-09-16T07:23:18.639Z,15
2022-09-16T07:24:19.141Z,15.11
2022-09-16T07:25:20.056Z,15.11
2022-09-16T07:26:21.096Z,15.11
2022-09-16T07:27:21.366Z,15.08
2022-09-16T07:28:21.004Z,15.04
2022-09-16T07:29:21.999Z,15.1
2022-09-16T07:30:23.206Z,14.99
2022-09-16T07:31:24.200Z,15.07
2022-09-16T07:32:24.455Z,15
2022-09-16T07:33:24.385Z,15.07
2022-09-16T07:34:25.380Z,15.11
2022-09-16T07:35:25.870Z,15.05
2022-09-16T07:36:25.811Z,15.12
2022-09-16T07:37:26.756Z,15.04
2022-09-16T07:38:28.094Z,15.18
2022-09-16T07:39:28.039Z,15.19
2022-09-16T07:40:32.778Z,15.17
2022-09-16T07:41:29.609Z,15.15
2022-09-16T07:42:30.270Z,15.15
2022-09-16T07:43:29.898Z,15.27
2022-09-16T07:44:30.103Z,15.26
2022-09-16T07:45:30.826Z,15.29
2022-09-16T07:46:31.246Z,15.35
2022-09-16T07:47:31.178Z,15.39
2022-09-16T07:48:35.527Z,15.44
2022-09-16T07:49:31.875Z,15.48
2022-09-16T07:50:32.370Z,15.47
2022-09-16T07:51:32.993Z,15.45
2022-09-16T07:52:33.723Z,15.57
2022-09-16T07:53:35.608Z,15.59
2022-09-16T07:54:35.172Z,15.69
2022-09-16T07:55:35.765Z,15.78
2022-09-16T07:56:36.093Z,15.72
2022-09-16T07:57:36.960Z,15.9
2022-09-16T07:58:36.862Z,15.91
2022-09-16T07:59:37.773Z,15.96
2022-09-16T08:00:38.264Z,15.96
2022-09-16T08:01:43.944Z,15.98
2022-09-16T08:02:39.318Z,16.1
2022-09-16T08:03:40.113Z,16.13
2022-09-16T08:04:40.922Z,16.17
2022-09-16T08:05:41.118Z,16.16
2022-09-16T08:06:41.755Z,16.22
2022-09-16T08:07:42.405Z,16.13
2022-09-16T08:08:43.735Z,16.24
2022-09-16T08:09:53.369Z,16.29
2022-09-16T08:10:46.837Z,16.34
2022-09-16T08:11:46.213Z,16.39
2022-09-16T08:12:46.812Z,16.5
2022-09-16T08:13:47.163Z,16.43
2022-09-16T08:14:47.979Z,16.49
2022-09-16T08:15:48.476Z,16.49
2022-09-16T08:16:49.004Z,16.62
2022-09-16T08:17:49.516Z,16.65
2022-09-16T08:18:49.861Z,16.72
2022-09-16T08:19:50.518Z,16.77
2022-09-16T08:20:51.730Z,16.83
2022-09-16T08:21:51.927Z,16.92
2022-09-16T08:22:58.019Z,16.94
2022-09-16T08:23:52.812Z,17.01
2022-09-16T08:24:53.339Z,16.99
2022-09-16T08:25:53.539Z,17.01
2022-09-16T08:26:54.356Z,17.07
2022-09-16T08:27:58.644Z,17.1
2022-09-16T08:29:14.744Z,17.07
2022-09-16T08:29:55.084Z,16.99
2022-09-16T08:30:59.126Z,17.05
2022-09-16T08:31:55.675Z,17.12
2022-09-16T08:32:55.433Z,17.19
2022-09-16T08:33:56.663Z,17.35
2022-09-16T08:34:57.402Z,17.38
2022-09-16T08:35:58.219Z,17.38
2022-09-16T08:36:58.434Z,17.39
2022-09-16T08:37:59.055Z,17.52
2022-09-16T08:39:00.418Z,17.54
2022-09-16T08:40:00.902Z,17.6
2022-09-16T08:41:01.495Z,17.56
2022-09-16T08:42:01.822Z,17.53
2022-09-16T08:43:02.777Z,17.44
2022-09-16T08:44:03.250Z,17.35
2022-09-16T08:45:03.769Z,17.35
2022-09-16T08:46:03.907Z,17.3
2022-09-16T08:47:03.907Z,17.38
2022-09-16T08:48:04.591Z,17.41
2022-09-16T08:49:05.599Z,17.37
2022-09-16T08:50:06.190Z,17.38
2022-09-16T08:51:06.472Z,17.42
2022-09-16T08:52:06.824Z,17.52
2022-09-16T08:53:07.734Z,17.56
2022-09-16T08:54:07.930Z,17.49
2022-09-16T08:55:08.384Z,17.63
2022-09-16T08:56:08.436Z,17.63
2022-09-16T08:57:09.783Z,17.76
2022-09-16T08:58:10.446Z,17.78
2022-09-16T08:59:10.682Z,17.88
2022-09-16T09:00:11.654Z,17.95
2022-09-16T09:01:12.246Z,18.18
2022-09-16T09:03:13.667Z,18.31
2022-09-16T09:04:13.608Z,18.42
2022-09-16T09:05:14.445Z,18.41
2022-09-16T09:06:14.641Z,18.39
2022-09-16T09:07:14.964Z,18.46
2022-09-16T09:08:16.167Z,18.45
2022-09-16T09:09:15.795Z,18.53
2022-09-16T09:10:16.783Z,18.57
2022-09-16T09:11:17.703Z,18.63
2022-09-16T09:13:24.214Z,18.6
2022-09-16T09:14:19.757Z,18.6
2022-09-16T09:15:27.560Z,18.7
2022-09-16T09:16:21.215Z,18.68
2022-09-16T09:17:21.490Z,18.68
2022-09-16T09:18:22.330Z,18.61
2022-09-16T09:19:23.225Z,18.7
2022-09-16T09:20:23.839Z,18.68
2022-09-16T09:21:27.879Z,18.64
2022-09-16T09:22:25.090Z,18.7
2022-09-16T09:23:25.310Z,18.66
2022-09-16T09:24:25.251Z,18.58
2022-09-16T09:25:26.491Z,18.49
2022-09-16T09:26:26.705Z,18.49
2022-09-16T09:27:27.609Z,18.49
2022-09-16T09:28:29.322Z,18.36
2022-09-16T09:29:29.250Z,18.37
2022-09-16T09:30:30.559Z,18.31
2022-09-16T09:31:31.303Z,18.3
2022-09-16T09:32:49.673Z,18.34
2022-09-16T09:33:54.866Z,18.3
2022-09-16T09:34:34.951Z,18.26
2022-09-16T09:35:32.966Z,18.31
2022-09-16T09:36:32.907Z,18.24
2022-09-16T09:37:33.100Z,18.34
2022-09-16T09:38:34.296Z,18.37
2022-09-16T09:39:34.233Z,18.41
2022-09-16T09:40:35.709Z,18.41
2022-09-16T09:41:35.649Z,18.42
2022-09-16T09:42:35.850Z,18.42
2022-09-16T09:43:36.736Z,18.33
2022-09-16T09:44:36.985Z,18.48
2022-09-16T09:45:38.129Z,18.51
2022-09-16T09:46:38.191Z,18.45
2022-09-16T09:47:38.236Z,18.66
2022-09-16T09:48:39.202Z,18.63
2022-09-16T09:49:39.126Z,18.73
2022-09-16T09:50:40.039Z,18.78
2022-09-16T09:51:41.251Z,18.91
2022-09-16T09:52:41.747Z,18.97
2022-09-16T09:53:41.963Z,19.12
2022-09-16T09:54:42.956Z,19.17
2022-09-16T09:55:43.682Z,19.23
2022-09-16T09:56:44.598Z,19.3
2022-09-16T09:57:45.793Z,19.38
2022-09-16T09:58:46.780Z,19.37
2022-09-16T09:59:46.966Z,19.3
2022-09-16T10:00:48.084Z,19.44
2022-09-16T10:01:47.993Z,19.41
2022-09-16T10:02:54.496Z,19.45
2022-09-16T10:03:48.687Z,19.53
2022-09-16T10:04:49.873Z,19.49
2022-09-16T10:05:50.394Z,19.49
2022-09-16T10:06:50.406Z,19.57
2022-09-16T10:07:50.774Z,19.52
2022-09-16T10:08:51.988Z,19.49
2022-09-16T10:09:52.227Z,19.57
2022-09-16T10:10:52.146Z,19.57
2022-09-16T10:11:53.082Z,19.53
2022-09-16T10:12:54.301Z,19.56
2022-09-16T10:13:55.013Z,19.49
2022-09-16T10:14:55.206Z,19.49
2022-09-16T10:16:00.700Z,19.44
2022-09-16T10:16:56.997Z,19.52
2022-09-16T10:17:57.605Z,19.47
2022-09-16T10:18:57.625Z,19.47
2022-09-16T10:19:58.266Z,19.49
2022-09-16T10:20:59.510Z,19.49
2022-09-16T10:21:59.714Z,19.53
2022-09-16T10:23:00.324Z,19.53
2022-09-16T10:24:00.241Z,19.49
2022-09-16T10:25:01.160Z,19.45
2022-09-16T10:26:01.382Z,19.35
2022-09-16T10:27:02.308Z,19.35
2022-09-16T10:28:02.933Z,19.32
2022-09-16T10:29:03.978Z,19.3
2022-09-16T10:30:03.904Z,19.27
2022-09-16T10:31:05.144Z,19.26
2022-09-16T10:32:05.928Z,19.22
2022-09-16T10:33:06.546Z,19.15
2022-09-16T10:34:06.798Z,18.98
2022-09-16T10:35:07.697Z,19.01
2022-09-16T10:36:08.428Z,18.94
2022-09-16T10:37:09.365Z,18.92
2022-09-16T10:38:10.026Z,18.74
2022-09-16T10:39:11.516Z,18.76
2022-09-16T10:40:11.960Z,18.67
2022-09-16T10:41:12.074Z,18.76
2022-09-16T10:42:13.014Z,18.74
2022-09-16T10:43:13.502Z,18.73
2022-09-16T10:44:17.952Z,18.63
2022-09-16T10:45:13.869Z,18.58
2022-09-16T10:46:14.417Z,18.67
2022-09-16T10:47:14.794Z,18.78
2022-09-16T10:48:15.812Z,18.91
2022-09-16T10:49:16.310Z,19.34
2022-09-16T10:50:16.934Z,19.55
2022-09-16T10:51:18.151Z,19.81
2022-09-16T10:52:18.672Z,19.96
2022-09-16T10:53:18.735Z,19.97
2022-09-16T10:54:19.696Z,20.15
2022-09-16T10:55:20.910Z,20.27
2022-09-16T10:56:21.566Z,20.55
2022-09-16T10:57:21.483Z,20.73
2022-09-16T10:58:22.613Z,20.59
2022-09-16T10:59:23.309Z,20.68
2022-09-16T11:00:23.237Z,20.6
2022-09-16T11:01:27.622Z,20.71
2022-09-16T11:02:24.651Z,20.59
2022-09-16T11:03:26.004Z,20.58
2022-09-16T11:04:26.966Z,20.55
2022-09-16T11:05:31.252Z,20.44
2022-09-16T11:06:27.757Z,20.24
2022-09-16T11:07:28.357Z,20.22
2022-09-16T11:08:28.572Z,20.19
2022-09-16T11:09:28.519Z,20.22
2022-09-16T11:10:29.439Z,20.15
2022-09-16T11:12:31.306Z,20.27
2022-09-16T11:13:31.228Z,20.3
2022-09-16T11:14:32.905Z,20.34
2022-09-16T11:15:32.822Z,20.24
2022-09-16T11:16:33.827Z,20.34
2022-09-16T11:17:34.180Z,20.36
2022-09-16T11:18:34.946Z,20.37
2022-09-16T11:19:36.107Z,20.4
2022-09-16T11:20:36.317Z,20.34
2022-09-16T11:21:36.286Z,20.58
2022-09-16T11:22:37.484Z,20.63
2022-09-16T11:23:38.145Z,20.8
2022-09-16T11:24:38.629Z,20.88
2022-09-16T11:25:38.828Z,20.95
2022-09-16T11:26:39.784Z,20.95
2022-09-16T11:27:40.145Z,21.14
2022-09-16T11:28:41.060Z,21.14
2022-09-16T11:29:42.079Z,21.29
2022-09-16T11:30:42.014Z,21.32
2022-09-16T11:31:42.495Z,21.38
2022-09-16T11:32:44.027Z,21.5
2022-09-16T11:33:43.843Z,21.54
2022-09-16T11:34:43.838Z,21.59
2022-09-16T11:35:45.039Z,21.54
2022-09-16T11:36:45.761Z,21.48
2022-09-16T11:37:46.360Z,21.58
2022-09-16T11:38:51.478Z,21.58
2022-09-16T11:39:47.925Z,21.48
2022-09-16T11:40:48.494Z,21.53
2022-09-16T11:41:48.825Z,21.54
2022-09-16T11:42:48.750Z,21.58
2022-09-16T11:43:49.368Z,21.45
2022-09-16T11:44:50.535Z,21.44
2022-09-16T11:45:50.757Z,21.37
2022-09-16T11:46:51.669Z,21.38
2022-09-16T11:47:51.680Z,21.48
2022-09-16T11:48:52.033Z,21.41
2022-09-16T11:49:52.546Z,21.32
2022-09-16T11:50:52.752Z,21.29
2022-09-16T11:51:53.371Z,21.41
2022-09-16T11:52:56.465Z,21.35
2022-09-16T11:53:55.634Z,21.33
2022-09-16T11:54:55.561Z,21.33
2022-09-16T11:55:56.480Z,21.29
2022-09-16T11:56:57.485Z,21.3
2022-09-16T11:57:58.253Z,21.38
2022-09-16T11:58:59.239Z,21.4
2022-09-16T11:59:59.955Z,21.29
2022-09-16T12:01:00.552Z,21.37
2022-09-16T12:02:01.074Z,21.41
2022-09-16T12:03:01.681Z,21.43
2022-09-16T12:04:02.318Z,21.58
2022-09-16T12:05:02.526Z,21.63
2022-09-16T12:06:03.727Z,21.84
2022-09-16T12:07:04.538Z,21.91
2022-09-16T12:08:05.295Z,21.99
2022-09-16T12:09:10.520Z,22.26
2022-09-16T12:10:06.797Z,22.26
2022-09-16T12:11:07.135Z,22.31
2022-09-16T12:12:07.641Z,22.23
2022-09-16T12:13:07.841Z,22.25
2022-09-16T12:14:11.890Z,22.26
2022-09-16T12:15:12.213Z,22.15
2022-09-16T12:16:09.470Z,22.19
2022-09-16T12:17:10.487Z,22.03
2022-09-16T12:18:11.463Z,22.04
2022-09-16T12:19:12.076Z,22.06
2022-09-16T12:20:12.100Z,22.06
2022-09-16T12:21:13.023Z,22.12
2022-09-16T12:22:14.245Z,22.15
2022-09-16T12:23:14.164Z,22.12
2022-09-16T12:24:15.382Z,22.03
2022-09-16T12:25:15.082Z,21.96
2022-09-16T12:26:16.574Z,21.92
2022-09-16T12:27:16.838Z,21.85
2022-09-16T12:28:16.867Z,21.81
2022-09-16T12:29:16.788Z,21.7
2022-09-16T12:30:18.834Z,21.7
2022-09-16T12:31:24.445Z,21.69
2022-09-16T12:32:19.670Z,21.62
2022-09-16T12:33:20.898Z,21.68
2022-09-16T12:34:21.230Z,21.63
2022-09-16T12:35:22.287Z,21.37
2022-09-16T12:36:26.342Z,21.3
2022-09-16T12:37:23.087Z,21.13
2022-09-16T12:38:23.705Z,20.98
2022-09-16T12:39:24.342Z,20.78
2022-09-16T12:40:24.751Z,20.66
2022-09-16T12:41:25.155Z,20.53
2022-09-16T12:42:25.492Z,20.18
2022-09-16T12:43:26.685Z,19.92
2022-09-16T12:44:40.090Z,19.77
2022-09-16T12:45:28.060Z,19.67
2022-09-16T12:46:27.795Z,19.47
2022-09-16T12:47:28.680Z,19.38
2022-09-16T12:48:29.623Z,19.26
2022-09-16T12:49:30.381Z,19.11
2022-09-16T12:50:31.021Z,18.96
2022-09-16T12:51:31.530Z,18.85
2022-09-16T12:52:31.935Z,18.61
2022-09-16T12:53:32.573Z,18.51
2022-09-16T12:55:06.996Z,18.23
2022-09-16T12:55:34.236Z,18.12
2022-09-16T12:56:34.856Z,18
2022-09-16T12:57:34.702Z,18.05
2022-09-16T12:58:35.645Z,17.9
2022-09-16T12:59:35.841Z,17.78
2022-09-16T13:00:36.724Z,17.73
2022-09-16T13:01:37.827Z,17.52
2022-09-16T13:02:38.480Z,17.54
2022-09-16T13:03:39.015Z,17.44
2022-09-16T13:04:39.330Z,17.41
2022-09-16T13:05:39.716Z,17.2